createdAt,value
2019-05-28T00:01:15.399Z,2.20
2019-05-28T00:03:46.290Z,2.60
2019-05-28T00:06:15.934Z,2.37
2019-05-28T00:08:45.970Z,2.43
2019-05-28T00:11:15.285Z,2.27
2019-05-28T00:13:47.742Z,2.10
2019-05-28T00:16:17.185Z,2.40
2019-05-28T00:18:49.291Z,2.20
2019-05-28T00:21:18.598Z,2.73
2019-05-28T00:23:48.970Z,2.00
2019-05-28T00:26:18.276Z,2.53
2019-05-28T00:28:48.675Z,2.10
2019-05-28T00:31:18.288Z,2.57
2019-05-28T00:33:50.374Z,2.47
2019-05-28T00:36:22.930Z,2.63
2019-05-28T00:38:52.231Z,2.23
2019-05-28T00:41:21.544Z,2.00
2019-05-28T00:43:50.866Z,2.63
2019-05-28T00:46:20.997Z,2.50
2019-05-28T00:48:50.315Z,2.93
2019-05-28T00:51:22.600Z,2.50
2019-05-28T00:53:51.942Z,2.50
2019-05-28T00:56:24.405Z,2.73
2019-05-28T00:58:57.090Z,2.60
2019-05-28T01:01:26.443Z,2.47
2019-05-28T01:03:56.024Z,2.70
2019-05-28T01:06:25.399Z,2.37
2019-05-28T01:08:57.564Z,2.63
2019-05-28T01:11:29.566Z,2.70
2019-05-28T01:13:58.858Z,2.70
2019-05-28T01:16:28.175Z,3.03
2019-05-28T01:19:00.306Z,3.23
2019-05-28T01:21:29.748Z,2.70
2019-05-28T01:23:59.129Z,2.77
2019-05-28T01:26:28.517Z,2.70
2019-05-28T01:28:57.821Z,2.57
2019-05-28T01:31:27.122Z,2.73
2019-05-28T01:33:56.520Z,2.97
2019-05-28T01:36:27.446Z,3.40
2019-05-28T01:38:56.734Z,2.87
2019-05-28T01:41:27.166Z,2.90
2019-05-28T01:43:56.458Z,3.00
2019-05-28T01:46:28.476Z,3.47
2019-05-28T01:48:57.911Z,2.80
2019-05-28T01:51:27.287Z,2.97
2019-05-28T01:53:59.378Z,3.00
2019-05-28T01:56:29.670Z,3.47
2019-05-28T01:58:58.978Z,2.90
2019-05-28T02:01:28.358Z,3.13
2019-05-28T02:03:57.670Z,3.20
2019-05-28T02:06:27.000Z,3.10
2019-05-28T02:08:58.966Z,3.17
2019-05-28T02:11:28.839Z,3.73
2019-05-28T02:13:58.325Z,3.50
2019-05-28T02:16:27.729Z,3.50
2019-05-28T02:18:59.366Z,3.80
2019-05-28T02:21:28.788Z,3.07
2019-05-28T02:23:58.188Z,3.20
2019-05-28T02:26:29.202Z,3.87
2019-05-28T02:28:59.202Z,3.80
2019-05-28T02:31:28.798Z,4.10
2019-05-28T02:33:58.095Z,3.37
2019-05-28T02:36:27.441Z,3.83
2019-05-28T02:38:56.794Z,3.80
2019-05-28T02:41:28.818Z,3.80
2019-05-28T02:43:58.178Z,4.13
2019-05-28T02:46:27.490Z,4.10
2019-05-28T02:48:59.148Z,3.77
2019-05-28T02:51:31.432Z,4.60
2019-05-28T02:54:02.350Z,4.33
2019-05-28T02:56:33.214Z,4.40
2019-05-28T02:59:02.605Z,4.80
2019-05-28T03:01:43.553Z,5.40
2019-05-28T03:04:08.994Z,4.60
2019-05-28T03:06:41.396Z,4.80
2019-05-28T03:09:13.534Z,5.20
2019-05-28T03:11:45.839Z,5.23
2019-05-28T03:14:18.236Z,5.27
2019-05-28T03:16:50.635Z,6.07
2019-05-28T03:19:20.742Z,5.60
2019-05-28T03:21:51.782Z,5.60
2019-05-28T03:24:26.095Z,5.63
2019-05-28T03:26:55.490Z,5.13
2019-05-28T03:29:24.872Z,5.17
2019-05-28T03:32:06.812Z,5.87
2019-05-28T03:34:25.892Z,5.63
2019-05-28T03:36:59.081Z,5.37
2019-05-28T03:39:31.016Z,5.00
2019-05-28T03:42:03.507Z,5.17
2019-05-28T03:44:32.824Z,5.60
2019-05-28T03:47:03.892Z,4.90
2019-05-28T03:49:34.543Z,5.27
2019-05-28T03:52:05.739Z,5.07
2019-05-28T03:54:35.054Z,5.90
2019-05-28T03:57:05.964Z,5.53
2019-05-28T03:59:35.300Z,5.20
2019-05-28T04:02:22.210Z,6.23
2019-05-28T04:04:37.304Z,4.97
2019-05-28T04:07:08.372Z,5.53
2019-05-28T04:09:37.709Z,5.13
2019-05-28T04:12:07.084Z,5.07
2019-05-28T04:14:36.456Z,5.50
2019-05-28T04:17:06.019Z,5.87
2019-05-28T04:19:35.408Z,5.20
2019-05-28T04:22:07.507Z,6.13
2019-05-28T04:24:37.386Z,6.30
2019-05-28T04:27:06.691Z,6.87
2019-05-28T04:29:36.049Z,6.17
2019-05-28T04:32:05.442Z,6.97
2019-05-28T04:34:37.574Z,6.93
2019-05-28T04:37:07.073Z,6.30
2019-05-28T04:39:38.065Z,6.63
2019-05-28T04:42:07.359Z,7.23
2019-05-28T04:44:39.938Z,7.33
2019-05-28T04:47:09.991Z,6.73
2019-05-28T04:49:40.388Z,7.23
2019-05-28T04:52:12.412Z,7.13
2019-05-28T04:54:41.782Z,7.30
2019-05-28T04:57:11.098Z,7.07
2019-05-28T04:59:40.492Z,6.40
2019-05-28T05:02:12.312Z,6.17
2019-05-28T05:04:41.826Z,6.33
2019-05-28T05:07:13.968Z,6.87
2019-05-28T05:09:43.350Z,6.93
2019-05-28T05:12:14.502Z,6.43
2019-05-28T05:14:46.715Z,6.60
2019-05-28T05:17:16.009Z,6.50
2019-05-28T05:19:47.054Z,6.80
2019-05-28T05:22:16.337Z,7.20
2019-05-28T05:24:48.603Z,7.20
2019-05-28T05:27:17.892Z,7.00
2019-05-28T05:29:47.937Z,6.73
2019-05-28T05:32:17.261Z,6.27
2019-05-28T05:34:46.624Z,7.00
2019-05-28T05:37:16.003Z,7.07
2019-05-28T05:39:49.908Z,7.00
2019-05-28T05:42:20.230Z,8.20
2019-05-28T05:44:49.612Z,8.83
2019-05-28T05:47:19.111Z,8.67
2019-05-28T05:49:48.490Z,8.87
2019-05-28T05:52:18.700Z,9.10
2019-05-28T05:54:51.178Z,9.10
2019-05-28T05:57:20.501Z,9.27
2019-05-28T05:59:49.892Z,9.60
2019-05-28T06:02:19.183Z,9.67
2019-05-28T06:04:50.195Z,9.90
2019-05-28T06:07:22.581Z,9.07
2019-05-28T06:09:54.880Z,9.23
2019-05-28T06:12:28.153Z,8.60
2019-05-28T06:14:57.572Z,8.70
2019-05-28T06:17:30.332Z,8.87
2019-05-28T06:19:59.751Z,9.63
2019-05-28T06:22:29.140Z,9.70
2019-05-28T06:24:58.532Z,8.67
2019-05-28T06:27:27.917Z,9.00
2019-05-28T06:29:59.017Z,7.90
2019-05-28T06:32:28.400Z,9.17
2019-05-28T06:35:00.696Z,7.83
2019-05-28T06:37:35.004Z,8.53
2019-05-28T06:40:07.545Z,7.40
2019-05-28T06:42:39.770Z,8.77
2019-05-28T06:45:11.012Z,8.20
2019-05-28T06:47:45.143Z,8.93
2019-05-28T06:50:14.948Z,8.07
2019-05-28T06:52:45.061Z,7.90
2019-05-28T06:55:17.698Z,9.40
2019-05-28T06:57:47.231Z,10.07
2019-05-28T07:00:19.745Z,5.70
2019-05-28T07:02:49.161Z,3.93
2019-05-28T07:05:20.165Z,4.20
2019-05-28T07:07:49.634Z,5.30
2019-05-28T07:10:21.659Z,6.90
2019-05-28T07:12:55.410Z,7.57
2019-05-28T07:15:25.434Z,8.53
2019-05-28T07:17:54.737Z,8.90
2019-05-28T07:20:24.107Z,9.80
2019-05-28T07:22:54.656Z,8.80
2019-05-28T07:25:23.959Z,8.53
2019-05-28T07:28:09.795Z,8.97
2019-05-28T07:30:24.416Z,6.87
2019-05-28T07:32:53.711Z,4.87
2019-05-28T07:35:23.163Z,3.50
2019-05-28T07:37:52.541Z,3.63
2019-05-28T07:40:31.788Z,3.17
2019-05-28T07:42:57.347Z,1.57
2019-05-28T07:45:28.379Z,1.20
2019-05-28T07:47:59.299Z,1.20
2019-05-28T07:50:31.607Z,1.37
2019-05-28T07:53:00.925Z,1.60
2019-05-28T07:55:30.253Z,1.43
2019-05-28T07:57:59.631Z,1.67
2019-05-28T08:00:38.061Z,2.60
2019-05-28T08:03:10.055Z,1.80
2019-05-28T08:05:39.485Z,1.93
2019-05-28T08:08:10.617Z,2.87
2019-05-28T08:10:40.293Z,3.03
2019-05-28T08:13:09.691Z,2.87
2019-05-28T08:15:39.059Z,2.90
2019-05-28T08:18:08.451Z,2.93
2019-05-28T08:20:37.805Z,2.63
2019-05-28T08:23:08.969Z,2.13
2019-05-28T08:25:46.677Z,2.47
2019-05-28T08:28:19.461Z,2.97
2019-05-28T08:30:40.512Z,2.47
2019-05-28T08:33:12.889Z,2.30
2019-05-28T08:35:42.319Z,1.90
2019-05-28T08:38:11.651Z,1.83
2019-05-28T08:40:42.652Z,2.23
2019-05-28T08:43:15.261Z,2.17
2019-05-28T08:45:44.646Z,2.20
2019-05-28T08:48:14.002Z,2.40
2019-05-28T08:50:43.385Z,2.23
2019-05-28T08:53:12.743Z,2.50
2019-05-28T08:55:42.083Z,2.47
2019-05-28T08:58:12.061Z,2.40
2019-05-28T09:00:44.425Z,2.43
2019-05-28T09:03:15.340Z,2.37
2019-05-28T09:05:45.555Z,2.33
2019-05-28T09:08:14.837Z,2.17
2019-05-28T09:10:45.150Z,2.10
2019-05-28T09:13:14.506Z,2.10
2019-05-28T09:15:45.422Z,1.83
2019-05-28T09:18:14.722Z,1.50
2019-05-28T09:20:44.394Z,1.90
2019-05-28T09:23:15.099Z,2.20
2019-05-28T09:25:44.481Z,2.30
2019-05-28T09:28:29.298Z,2.17
2019-05-28T09:30:48.170Z,2.50
2019-05-28T09:33:17.633Z,2.73
2019-05-28T09:36:06.325Z,3.50
2019-05-28T09:38:19.739Z,3.13
2019-05-28T09:40:52.314Z,2.93
2019-05-28T09:43:21.591Z,3.30
2019-05-28T09:45:52.469Z,2.70
2019-05-28T09:48:21.759Z,3.00
2019-05-28T09:50:52.783Z,3.20
2019-05-28T09:53:25.128Z,4.00
2019-05-28T09:55:55.989Z,2.50
2019-05-28T09:58:26.917Z,2.20
2019-05-28T10:00:59.405Z,2.27
2019-05-28T10:03:30.489Z,2.40
2019-05-28T10:06:15.560Z,2.03
2019-05-28T10:08:32.525Z,3.20
2019-05-28T10:11:01.889Z,2.30
2019-05-28T10:13:38.755Z,2.27
2019-05-28T10:16:02.462Z,2.07
2019-05-28T10:18:33.529Z,2.10
2019-05-28T10:21:17.910Z,2.37
2019-05-28T10:23:37.833Z,2.60
2019-05-28T10:26:08.745Z,2.50
2019-05-28T10:28:39.809Z,2.53
2019-05-28T10:31:09.145Z,2.23
2019-05-28T10:33:38.663Z,2.37
2019-05-28T10:36:07.972Z,2.13
2019-05-28T10:38:37.373Z,2.10
2019-05-28T10:41:06.747Z,2.17
2019-05-28T10:43:37.745Z,2.23
2019-05-28T10:46:08.876Z,2.37
2019-05-28T10:48:39.762Z,2.40
2019-05-28T10:51:09.145Z,2.43
2019-05-28T10:53:38.430Z,2.50
2019-05-28T10:56:07.741Z,2.30
2019-05-28T10:58:38.800Z,2.40
2019-05-28T11:01:09.899Z,2.40
2019-05-28T11:03:42.359Z,2.23
2019-05-28T11:06:11.918Z,1.90
2019-05-28T11:08:41.202Z,1.77
2019-05-28T11:11:10.580Z,1.60
2019-05-28T11:13:52.509Z,1.70
2019-05-28T11:16:10.963Z,1.40
2019-05-28T11:18:40.271Z,1.20
2019-05-28T11:21:10.232Z,0.60
2019-05-28T11:23:40.643Z,0.70
2019-05-28T11:26:10.043Z,0.60
2019-05-28T11:28:39.396Z,0.73
2019-05-28T11:31:11.023Z,1.00
2019-05-28T11:33:42.079Z,1.77
2019-05-28T11:36:14.519Z,0.70
2019-05-28T11:38:43.807Z,1.10
2019-05-28T11:41:14.850Z,1.00
2019-05-28T11:43:47.200Z,1.00
2019-05-28T11:46:16.528Z,1.30
2019-05-28T11:48:45.884Z,1.40
2019-05-28T11:51:15.269Z,1.30
2019-05-28T11:53:44.627Z,1.60
2019-05-28T11:56:15.679Z,1.53
2019-05-28T11:58:46.670Z,1.47
2019-05-28T12:01:33.066Z,2.60
2019-05-28T12:03:47.121Z,2.23
2019-05-28T12:06:16.478Z,2.13
2019-05-28T12:08:47.692Z,1.70
2019-05-28T12:11:16.988Z,1.40
2019-05-28T12:13:48.822Z,1.57
2019-05-28T12:16:18.149Z,1.73
2019-05-28T12:18:50.075Z,2.10
2019-05-28T12:21:19.388Z,2.60
2019-05-28T12:23:50.296Z,2.60
2019-05-28T12:26:21.322Z,2.80
2019-05-28T12:28:52.394Z,2.90
2019-05-28T12:31:21.698Z,2.60
2019-05-28T12:33:50.983Z,2.97
2019-05-28T12:36:23.316Z,2.97
2019-05-28T12:38:53.039Z,2.80
2019-05-28T12:41:22.332Z,2.53
2019-05-28T12:43:56.456Z,3.90
2019-05-28T12:46:25.785Z,4.30
2019-05-28T12:48:55.152Z,2.77
2019-05-28T12:51:24.458Z,6.07
2019-05-28T12:53:53.828Z,4.63
2019-05-28T12:56:24.850Z,3.97
2019-05-28T12:58:54.238Z,5.80
2019-05-28T13:01:28.301Z,5.60
2019-05-28T13:03:57.572Z,4.77
2019-05-28T13:06:26.955Z,4.63
2019-05-28T13:08:56.318Z,3.70
2019-05-28T13:11:25.786Z,3.20
2019-05-28T13:13:55.109Z,3.50
2019-05-28T13:16:24.472Z,3.47
2019-05-28T13:18:53.770Z,3.17
2019-05-28T13:21:26.199Z,2.13
2019-05-28T13:23:55.566Z,1.50
2019-05-28T13:26:24.943Z,1.43
2019-05-28T13:28:55.244Z,1.40
2019-05-28T13:31:24.638Z,1.10
2019-05-28T13:33:55.606Z,1.10
2019-05-28T13:36:24.956Z,1.10
2019-05-28T13:38:54.256Z,1.40
2019-05-28T13:41:25.278Z,1.20
2019-05-28T13:43:54.580Z,1.53
2019-05-28T13:46:26.799Z,2.43
2019-05-28T13:48:56.122Z,2.47
2019-05-28T13:51:25.541Z,2.50
2019-05-28T13:53:54.823Z,2.20
2019-05-28T13:56:24.153Z,2.70
2019-05-28T13:58:53.471Z,3.10
2019-05-28T14:01:25.960Z,3.37
2019-05-28T14:03:55.306Z,3.20
2019-05-28T14:06:27.352Z,3.70
2019-05-28T14:08:59.760Z,3.27
2019-05-28T14:11:31.843Z,3.40
2019-05-28T14:14:01.273Z,3.67
2019-05-28T14:16:30.639Z,4.33
2019-05-28T14:19:02.683Z,4.20
2019-05-28T14:21:34.718Z,4.03
2019-05-28T14:24:05.711Z,3.20
2019-05-28T14:26:35.110Z,3.70
2019-05-28T14:29:05.958Z,2.10
2019-05-28T14:31:35.418Z,2.20
2019-05-28T14:34:06.314Z,2.80
2019-05-28T14:36:35.632Z,3.47
2019-05-28T14:39:08.086Z,3.43
2019-05-28T14:41:37.534Z,3.37
2019-05-28T14:44:08.605Z,2.80
2019-05-28T14:46:42.357Z,3.10
2019-05-28T14:49:11.736Z,2.53
2019-05-28T14:51:41.090Z,2.70
2019-05-28T14:54:10.398Z,2.80
2019-05-28T14:56:41.246Z,3.10
2019-05-28T14:59:10.604Z,3.20
2019-05-28T15:01:42.821Z,3.40
2019-05-28T15:04:12.124Z,3.93
2019-05-28T15:06:46.102Z,3.70
2019-05-28T15:09:20.801Z,3.60
2019-05-28T15:11:46.561Z,3.77
2019-05-28T15:14:17.656Z,4.13
2019-05-28T15:16:50.134Z,4.10
2019-05-28T15:19:19.569Z,3.43
2019-05-28T15:21:50.647Z,4.50
2019-05-28T15:24:20.112Z,3.97
2019-05-28T15:26:49.562Z,3.73
2019-05-28T15:29:20.579Z,3.60
2019-05-28T15:31:51.104Z,3.20
2019-05-28T15:34:22.314Z,4.13
2019-05-28T15:36:54.659Z,3.97
2019-05-28T15:39:39.017Z,4.30
2019-05-28T15:41:55.132Z,6.20
2019-05-28T15:44:27.418Z,5.10
2019-05-28T15:46:56.828Z,5.03
2019-05-28T15:49:26.195Z,5.50
2019-05-28T15:52:07.223Z,4.90
2019-05-28T15:54:29.170Z,4.97
2019-05-28T15:56:58.552Z,4.63
2019-05-28T15:59:27.935Z,4.53
2019-05-28T16:01:57.331Z,4.07
2019-05-28T16:04:26.636Z,4.53
2019-05-28T16:06:56.013Z,4.00
2019-05-28T16:09:25.676Z,3.80
2019-05-28T16:11:55.039Z,3.77
2019-05-28T16:14:28.117Z,3.73
2019-05-28T16:16:57.538Z,4.13
2019-05-28T16:19:28.474Z,3.83
2019-05-28T16:21:57.858Z,4.10
2019-05-28T16:24:30.344Z,4.53
2019-05-28T16:27:02.932Z,4.40
2019-05-28T16:29:33.395Z,4.30
2019-05-28T16:32:05.474Z,4.53
2019-05-28T16:34:34.931Z,4.50
2019-05-28T16:37:06.825Z,5.03
2019-05-28T16:39:36.147Z,4.27
2019-05-28T16:42:10.172Z,4.13
2019-05-28T16:44:39.551Z,4.00
2019-05-28T16:47:17.829Z,3.80
2019-05-28T16:49:39.963Z,4.23
2019-05-28T16:52:09.329Z,3.13
2019-05-28T16:54:38.634Z,3.30
2019-05-28T16:57:12.566Z,2.63
2019-05-28T16:59:41.990Z,3.17
2019-05-28T17:02:13.003Z,3.10
2019-05-28T17:04:42.385Z,3.43
2019-05-28T17:07:11.762Z,3.93
2019-05-28T17:09:41.128Z,4.20
2019-05-28T17:12:10.512Z,4.90
2019-05-28T17:14:44.444Z,4.30
2019-05-28T17:17:14.027Z,4.70
2019-05-28T17:19:44.848Z,4.80
2019-05-28T17:22:17.196Z,4.90
2019-05-28T17:24:46.951Z,5.27
2019-05-28T17:27:17.608Z,5.30
2019-05-28T17:29:50.469Z,5.90
2019-05-28T17:32:19.616Z,6.27
2019-05-28T17:34:48.911Z,5.93
2019-05-28T17:37:18.206Z,5.93
2019-05-28T17:39:47.520Z,6.30
2019-05-28T17:42:18.771Z,5.60
2019-05-28T17:44:48.066Z,6.87
2019-05-28T17:47:17.369Z,5.40
2019-05-28T17:49:46.744Z,6.50
2019-05-28T17:52:16.175Z,5.40
2019-05-28T17:54:45.639Z,5.33
2019-05-28T17:57:14.997Z,5.03
2019-05-28T17:59:44.368Z,5.10
2019-05-28T18:02:13.692Z,5.17
2019-05-28T18:04:43.859Z,5.77
2019-05-28T18:07:13.143Z,4.80
2019-05-28T18:09:42.499Z,4.83
2019-05-28T18:12:13.539Z,5.37
2019-05-28T18:14:44.589Z,4.93
2019-05-28T18:17:16.817Z,4.63
2019-05-28T18:19:46.245Z,5.43
2019-05-28T18:22:15.548Z,5.10
2019-05-28T18:24:47.895Z,5.37
2019-05-28T18:27:17.207Z,5.13
2019-05-28T18:29:48.220Z,5.40
2019-05-28T18:32:17.576Z,6.00
2019-05-28T18:34:46.984Z,6.23
2019-05-28T18:37:16.379Z,6.33
2019-05-28T18:39:45.782Z,6.27
2019-05-28T18:42:17.882Z,6.40
2019-05-28T18:44:47.431Z,6.30
2019-05-28T18:47:19.636Z,6.50
2019-05-28T18:49:50.720Z,7.07
2019-05-28T18:52:21.706Z,7.33
2019-05-28T18:54:52.151Z,6.40
2019-05-28T18:57:21.579Z,8.33
2019-05-28T18:59:51.793Z,7.87
2019-05-28T19:02:21.173Z,7.77
2019-05-28T19:04:51.621Z,8.47
2019-05-28T19:07:21.207Z,9.33
2019-05-28T19:09:52.363Z,9.93
2019-05-28T19:12:23.439Z,9.03
2019-05-28T19:14:52.919Z,9.23
2019-05-28T19:17:25.479Z,9.87
2019-05-28T19:19:54.889Z,9.50
2019-05-28T19:22:25.009Z,10.60
2019-05-28T19:24:57.401Z,11.50
2019-05-28T19:27:26.798Z,10.23
2019-05-28T19:29:56.245Z,11.17
2019-05-28T19:32:28.314Z,11.27
2019-05-28T19:34:59.315Z,13.13
2019-05-28T19:37:30.495Z,12.67
2019-05-28T19:40:01.331Z,12.43
2019-05-28T19:42:33.855Z,13.17
2019-05-28T19:45:04.680Z,12.67
2019-05-28T19:47:34.063Z,12.17
2019-05-28T19:50:08.409Z,13.80
2019-05-28T19:52:37.779Z,11.83
2019-05-28T19:55:08.611Z,11.77
2019-05-28T19:57:37.992Z,10.63
2019-05-28T20:00:09.893Z,7.20
2019-05-28T20:02:39.199Z,6.70
2019-05-28T20:05:15.072Z,6.67
2019-05-28T20:07:43.296Z,6.47
2019-05-28T20:10:13.402Z,6.10
2019-05-28T20:12:42.788Z,6.40
2019-05-28T20:15:15.280Z,6.63
2019-05-28T20:17:46.213Z,7.33
2019-05-28T20:20:17.514Z,7.30
2019-05-28T20:22:47.846Z,7.03
2019-05-28T20:25:19.539Z,7.63
2019-05-28T20:27:49.647Z,7.20
2019-05-28T20:30:23.010Z,7.87
2019-05-28T20:32:55.018Z,6.60
2019-05-28T20:35:23.328Z,6.40
2019-05-28T20:37:52.612Z,7.43
2019-05-28T20:40:25.125Z,8.53
2019-05-28T20:42:57.439Z,8.57
2019-05-28T20:45:28.295Z,8.13
2019-05-28T20:47:57.604Z,6.80
2019-05-28T20:50:26.904Z,9.70
2019-05-28T20:52:56.198Z,8.53
2019-05-28T20:55:25.522Z,9.20
2019-05-28T20:57:55.376Z,9.17
2019-05-28T21:00:27.424Z,9.80
2019-05-28T21:02:57.830Z,11.40
2019-05-28T21:05:27.734Z,10.63
2019-05-28T21:07:58.295Z,11.17
2019-05-28T21:10:29.075Z,9.87
2019-05-28T21:12:58.997Z,9.93
2019-05-28T21:15:30.141Z,9.80
2019-05-28T21:17:59.648Z,11.60
2019-05-28T21:20:30.523Z,11.23
2019-05-28T21:23:00.332Z,13.10
2019-05-28T21:25:33.283Z,10.90
2019-05-28T21:28:02.690Z,11.03
2019-05-28T21:30:33.700Z,13.87
2019-05-28T21:33:03.156Z,11.93
2019-05-28T21:35:32.541Z,13.73
2019-05-28T21:38:01.853Z,15.47
2019-05-28T21:40:33.930Z,12.73
2019-05-28T21:43:09.266Z,13.47
2019-05-28T21:45:34.262Z,13.53
2019-05-28T21:48:07.002Z,12.67
2019-05-28T21:50:36.392Z,15.97
2019-05-28T21:53:05.762Z,13.53
2019-05-28T21:55:35.090Z,15.57
2019-05-28T21:58:04.474Z,17.40
2019-05-28T22:00:50.367Z,15.93
2019-05-28T22:03:20.968Z,15.33
2019-05-28T22:05:50.406Z,12.07
2019-05-28T22:08:21.272Z,11.97
2019-05-28T22:10:51.425Z,12.13
2019-05-28T22:13:23.313Z,10.73
2019-05-28T22:15:52.730Z,9.53
2019-05-28T22:18:22.222Z,9.07
2019-05-28T22:20:51.594Z,8.50
2019-05-28T22:23:22.904Z,9.03
2019-05-28T22:25:53.142Z,8.73
2019-05-28T22:28:23.430Z,8.23
2019-05-28T22:30:55.585Z,8.47
2019-05-28T22:33:27.809Z,7.67
2019-05-28T22:36:01.313Z,7.60
2019-05-28T22:38:31.617Z,8.27
2019-05-28T22:41:02.471Z,8.80
2019-05-28T22:43:33.288Z,8.50
2019-05-28T22:46:03.250Z,8.80
2019-05-28T22:48:37.028Z,8.37
2019-05-28T22:51:06.394Z,8.70
2019-05-28T22:53:40.190Z,8.90
2019-05-28T22:56:08.429Z,8.47
2019-05-28T22:58:39.495Z,9.33
2019-05-28T23:01:08.882Z,8.80
2019-05-28T23:03:40.976Z,8.87
2019-05-28T23:06:10.910Z,8.47
2019-05-28T23:08:40.224Z,9.30
2019-05-28T23:11:09.874Z,9.10
2019-05-28T23:13:46.853Z,9.03
2019-05-28T23:16:10.368Z,9.77
2019-05-28T23:18:39.729Z,9.67
2019-05-28T23:21:09.129Z,9.30
2019-05-28T23:23:38.438Z,9.43
2019-05-28T23:26:07.799Z,9.40
2019-05-28T23:28:37.105Z,9.73
2019-05-28T23:31:08.632Z,9.37
2019-05-28T23:33:38.755Z,9.70
2019-05-28T23:36:08.605Z,8.60
2019-05-28T23:38:39.848Z,8.80
2019-05-28T23:41:09.638Z,8.87
2019-05-28T23:43:43.601Z,9.83
2019-05-28T23:46:14.265Z,8.60
2019-05-28T23:48:45.771Z,9.27
2019-05-28T23:51:15.930Z,9.00
2019-05-28T23:53:45.289Z,9.00
2019-05-28T23:56:14.682Z,8.20
2019-05-28T23:58:45.147Z,8.77
